Terminal Aerodrome Forecast
Issued by NWS

Home | Current Version | Previous Version | Text Only | Print | Product List | Glossary On
Versions: 1 2 3 4 5 6 7 8 9 10 11 12 13 14 15 16
000
FTUS46 KLOX 210500
TAFSBA
TAF
KSBA 210540Z 2106/2206 32008KT P6SM BKN200 WS010/01030KT
     FM211200 VRB03KT P6SM BKN200
     FM211900 23010KT P6SM SCT200
     FM220000 31007KT P6SM SCT200 WS010/36030KT=

USA.gov is the U.S. government's official web portal to all federal, state and local government web resources and services.